Briones, California
Current Conditions -  °F | °C
As of 10:12 PM on Saturday 20 Dec 2014 (Local Time) from KCCR Reporting Station
Overcast Overcast  
Wind Chill: 59°   Ceiling: 3200
Heat Index: 59°   Visibility: 10mi
Dew Point: 52°   Wind: 16mph
Humidity: 78%   Direction: 190°S
Pressure: 30.24"   Gusts: NA
Location:  37.9788°N, 122.164°W
Report Text: KCCR 210612Z 19014KT 10SM FEW022 OVC032 15/11 A3024 RMK AO2 T01500111
Loading
Personal Weather Stations






























Interactive Weather Map New forecast layout! Learn more

10-Day Weather Forecast

Advertisements
Track Severe Weather on mobile